• Join FlightAware (Why Join?)
  • Login
  • US Flag 
12:37PM EDT


 

Airport Tracker/Info


-or-


 

Live Flight TrackerFlight Track Log ✈ JBU732 ✈ 14-Jun-2013 ✈ TJBQ / BQN - KMCO

Flight Track Log - Related Links

Times and Time Zones

All times are in EDT time to prevent confusion due to time zone crossing. See the JBU732 flight status page for this flight to view local times or setup timezone preferences in your user account.

Time Position Orientation Groundspeed Altitude Reporting Facility
EDT Latitude Longitude Course Direction KTS MPH feet Rate Location/Type
11:25AM 18.5167 -67.1167 309° West 220 253 2,000  Level San Juan Center
11:26AM 18.5500 -67.1833 298° West 270 311 3,800 2,700 Climbing San Juan Center
11:27AM 18.7001 -67.3767 311° West  Level FlightAware Approximate
11:27AM 18.6000 -67.2500 308° West 300 345 7,500  Level San Juan Center
11:28AM 18.7742 -67.4779 305° West  Level FlightAware Approximate
11:28AM 18.6500 -67.3167 308° West 310 357 10,400  Level San Juan Center
11:29AM 18.8468 -67.5801 317° Northwest  Level FlightAware Approximate
11:29AM 18.7000 -67.4000 302° West 360 414 11,200  Level San Juan Center
11:30AM 18.9243 -67.6787 309° West  Level FlightAware Approximate
11:30AM 18.7833 -67.4833 317° Northwest 390 449 13,300  Level San Juan Center
11:31AM 19.0013 -67.7777 309° West  Level FlightAware Approximate
11:31AM 18.8500 -67.5833 305° West 390 449 16,000  Level San Juan Center
11:32AM 18.9167 -67.6667 310° West 400 460 17,700 1,740 Climbing San Juan Center
11:33AM 18.9833 -67.7667 305° West 410 472 19,600 1,740 Climbing San Juan Center
11:34AM 19.0667 -67.8667 311° West 420 483 21,200 1,440 Climbing San Juan Center
11:35AM 19.1333 -67.9667 305° West 430 495 22,600 1,380 Climbing San Juan Center
11:36AM 19.2000 -68.0667 305° West 420 483 24,000 1,260 Climbing San Juan Center
11:37AM 19.2833 -68.1667 311° West 430 495 25,200 1,140 Climbing San Juan Center
11:38AM 19.3500 -68.2667 305° West 440 506 26,400 1,080 Climbing San Juan Center
11:39AM 19.4333 -68.3667 311° West 450 518 27,400 960 Climbing San Juan Center
11:40AM 19.5167 -68.4833 307° West 450 518 28,400 900 Climbing San Juan Center
11:41AM 19.5833 -68.5833 305° West 460 529 29,300 1,140 Climbing San Juan Center
11:42AM 19.6519 -68.6764 308° West 472 543 30,300 1,380 Climbing Miami Center
11:43AM 19.7303 -68.7839 308° West 461 531 31,500 1,260 Climbing Miami Center
11:44AM 19.8103 -68.8850 310° West 461 531 32,900 1,200 Climbing Miami Center
11:45AM 19.8861 -68.9883 308° West 456 525 33,900 540 Climbing Miami Center
11:46AM 19.9600 -69.0897 308° West 446 513 34,000  Climbing Miami Center
11:47AM 20.0336 -69.1914 308° West 440 506 34,000  Level Miami Center
11:48AM 20.0975 -69.3025 301° West 440 506 34,000  Level Miami Center
11:49AM 20.1628 -69.4092 303° West 440 506 34,000  Level Miami Center
11:50AM 20.2283 -69.5181 303° West 440 506 34,000  Level Miami Center
11:51AM 20.2961 -69.6292 303° West 440 506 34,000  Level Miami Center
11:52AM 20.3636 -69.7383 303° West 440 506 34,000  Level Miami Center
11:53AM 20.4289 -69.8456 303° West 440 506 34,000  Level Miami Center
11:54AM 20.4942 -69.9550 303° West 440 506 34,000  Level Miami Center
11:55AM 20.5594 -70.0622 303° West 440 506 34,000  Level Miami Center
11:56AM 20.6267 -70.1717 303° West 440 506 34,000  Level Miami Center
11:57AM 20.6939 -70.2814 303° West 440 506 34,000  Level Miami Center
11:58AM 20.7589 -70.3936 302° West 440 506 34,000  Level Miami Center
11:59AM 20.8261 -70.5033 303° West 440 506 34,000  Level Miami Center
12:00PM 20.8931 -70.6156 303° West 440 506 34,000  Level Miami Center
12:01PM 20.9581 -70.7258 302° West 440 506 34,000  Level Miami Center
12:02PM 21.0228 -70.8339 303° West 440 506 34,000  Level Miami Center
12:03PM 21.0875 -70.9442 302° West 440 506 34,000  Level Miami Center
12:04PM 21.1411 -71.0353 302° West 440 506 34,000  Level Miami Center
12:05PM 21.2103 -71.1592 301° West 440 506 34,000  Level Miami Center
12:06PM 21.2750 -71.2742 301° West 446 513 34,000  Level Miami Center
12:07PM 21.3436 -71.3828 304° West 446 513 34,000  Level Miami Center
12:08PM 21.4122 -71.4958 303° West 446 513 34,000  Level Miami Center
12:09PM 21.4767 -71.6069 302° West 441 507 34,000  Level Miami Center
12:10PM 21.5428 -71.7181 303° West 441 507 34,000  Level Miami Center
12:11PM 21.6072 -71.8292 302° West 441 507 34,000  Level Miami Center
12:12PM 21.6733 -71.9406 303° West 441 507 34,000  Level Miami Center
12:13PM 21.7372 -72.0500 302° West 441 507 34,000  Level Miami Center
12:14PM 21.8014 -72.1617 302° West 441 507 34,000  Level Miami Center
12:15PM 21.8653 -72.2756 301° West 441 507 34,000  Level Miami Center
12:16PM 21.9333 -72.3894 303° West 441 507 34,000  Level Miami Center
12:17PM 21.9950 -72.5017 301° West 441 507 34,000  Level Miami Center
12:18PM 22.0608 -72.6158 302° West 441 507 34,000  Level Miami Center
12:19PM 22.1208 -72.7417 297° West 441 507 34,000  Level Miami Center
12:20PM 22.1678 -72.8633 293° West 441 507 34,000  Level Miami Center
12:21PM 22.2147 -72.9853 293° West 441 507 34,000  Level Miami Center
12:22PM 22.2639 -73.1072 294° West 441 507 34,000  Level Miami Center
12:23PM 22.3189 -73.2247 297° West 441 507 34,000  Level Miami Center
12:24PM 22.3864 -73.3394 302° West 441 507 34,000  Level Miami Center
12:25PM 22.4475 -73.4525 300° West 441 507 34,000  Level Miami Center
12:26PM 22.5147 -73.5675 302° West 441 507 34,000  Level Miami Center
12:27PM 22.5839 -73.6806 304° West 446 513 34,000  Level Miami Center
12:28PM 22.6469 -73.7981 300° West 446 513 34,000  Level Miami Center
12:29PM 22.6994 -73.9208 295° West 446 513 34,000  Level Miami Center
12:30PM 22.7497 -74.0411 294° West 446 513 34,000  Level Miami Center
12:31PM 22.8019 -74.1436 299° West 441 507 34,000  Level Miami Center
12:32PM 22.8542 -74.2667 295° West 441 507 34,000  Level Miami Center
12:33PM 22.9083 -74.3850 296° West 441 507 34,000  Level Miami Center
12:34PM 22.9606 -74.5081 295° West 441 507 34,000  Level Miami Center
12:35PM 23.0186 -74.6289 298° West 441 507 34,000  Level Miami Center
12:36PM 23.0644 -74.7544 292° West 441 507 34,000  Level Miami Center
12:37PM 23.1078 -74.8803 291° West 441 507 34,000  Level Miami Center
12:38PM 23.1678 -74.9992 299° West 441 507 34,000  Level Miami Center
12:39PM 23.2342 -75.1133 302° West 448 516 34,000  Level Miami Center
12:40PM 23.3003 -75.2303 302° West 453 521 34,000  Level Miami Center
12:41PM 23.3661 -75.3469 302° West 459 528 34,000  Level Miami Center
12:42PM 23.4319 -75.4639 302° West 459 528 34,000  Level Miami Center
12:43PM 23.4978 -75.5789 302° West 459 528 34,000  Level Miami Center
12:44PM 23.5764 -75.7164 302° West 464 534 34,000  Level Miami Center
12:45PM 23.6461 -75.8381 302° West 478 550 34,000  Level Miami Center
12:46PM 23.7097 -75.9556 301° West 472 543 34,000  Level Miami Center
12:47PM 23.7814 -76.0731 304° West 466 536 34,000  Level Miami Center
12:48PM 23.8508 -76.1908 303° West 466 536 34,000  Level Miami Center
12:49PM 23.9183 -76.3133 301° West 466 536 34,000  Level Miami Center
12:50PM 23.9897 -76.4358 303° West 466 536 34,000  Level Miami Center
12:51PM 24.0569 -76.5539 302° West 466 536 34,000  Level Miami Center
12:52PM 24.1281 -76.6767 302° West 466 536 34,000  Level Miami Center
12:53PM 24.1908 -76.7814 303° West 466 536 34,000  Level Miami Center
12:54PM 24.2600 -76.9022 302° West 466 536 34,000  Level Miami Center
12:55PM 24.3289 -77.0253 302° West 466 536 34,000  Level Miami Center
12:56PM 24.3975 -77.1464 302° West 466 536 34,000  Level Miami Center
12:57PM 24.4683 -77.2697 302° West 466 536 34,000  Level Miami Center
12:58PM 24.5411 -77.3867 304° West 466 536 34,000  Level Miami Center
12:59PM 24.6369 -77.4875 316° Northwest 471 542 34,000  Level Miami Center
01:00PM 24.7306 -77.5911 315° West 471 542 34,000  Level Miami Center
01:01PM 24.8261 -77.6947 315° West 476 548 34,000  Level Miami Center
01:02PM 24.9194 -77.7983 315° West 476 548 34,000  Level Miami Center
01:03PM 25.0044 -77.9114 310° West 476 548 34,000  Level Miami Center
01:04PM 25.0892 -78.0222 310° West 476 548 34,000  Level Miami Center
01:05PM 25.1614 -78.1422 304° West 476 548 34,000  Level Miami Center
01:06PM 25.2314 -78.2672 302° West 476 548 34,000  Level Miami Center
01:07PM 25.3011 -78.4011 300° West 471 542 34,000  Level Miami Center
01:08PM 25.3625 -78.5283 298° West 466 536 34,000  Level Miami Center
01:09PM 25.4258 -78.6536 299° West 466 536 34,000  Level Miami Center
01:10PM 25.4806 -78.7833 295° West 461 531 34,000  Level Miami Center
01:11PM 25.5353 -78.9131 295° West 461 531 34,000  Level Miami Center
01:12PM 25.5878 -79.0292 297° West 461 531 34,000  Level Miami Center
01:13PM 25.6444 -79.1592 296° West 461 531 34,000 -60 Level Miami Center
01:14PM 25.6967 -79.2894 294° West 461 531 33,900  Descending Miami Center
01:15PM 25.7550 -79.4197 296° West 461 531 34,000  Climbing Miami Center
01:16PM 25.8111 -79.5478 296° West 466 536 34,000 -60 Level Miami Center
01:17PM 25.8672 -79.6808 295° West 466 536 33,900 -240 Descending Miami Center
01:18PM 25.9231 -79.8114 295° West 466 536 33,600 -660 Descending Miami Center
01:19PM 25.9808 -79.9444 296° West 471 542 32,600 -1,200 Descending Miami Center
01:20PM 26.0536 -80.0667 304° West 471 542 31,300 -1,380 Descending Miami Center
01:21PM 26.1472 -80.1733 314° West 476 548 29,900 -660 Descending Miami Center
01:22PM 26.2642 -80.2647 325° Northwest 462 532 30,000 -180 Climbing Miami Center
01:23PM 26.3778 -80.3236 335° Northwest 455 524 29,600 -780 Descending Miami Center
01:24PM 26.4953 -80.3781 337° Northwest 450 518 28,500 -1,020 Descending Miami Center
01:25PM 26.6067 -80.4372 335° Northwest 450 518 27,600 -960 Descending Miami Center
01:26PM 26.7181 -80.4917 336° Northwest 444 511 26,600 -960 Descending Miami Center
01:27PM 26.8214 -80.5439 336° Northwest 430 495 25,700 -960 Descending Miami Center
01:28PM 26.9222 -80.5958 335° Northwest 410 472 24,700 -1,020 Descending Miami Center
01:29PM 27.0233 -80.6481 335° Northwest 399 459 23,700 -1,260 Descending Miami Center
01:30PM 27.1222 -80.6956 337° Northwest 392 451 22,200 -1,920 Descending Miami Center
01:31PM 27.2189 -80.7456 335° Northwest 387 445 19,900 -1,800 Descending Miami Center
01:32PM 27.3097 -80.7906 336° Northwest 375 432 18,700 -1,500 Descending Miami Center
01:33PM 27.3900 -80.8331 335° Northwest 345 397 17,000 -1,500 Descending Miami Center
01:34PM 27.4681 -80.8733 335° Northwest 326 375 15,800 -1,380 Descending Miami Center
01:35PM 27.5483 -80.9136 336° Northwest 310 357 14,300 -1,620 Descending Miami Center
01:37PM 27.6833 -80.9833 335° Northwest 295 339 11,400 -1,260 Descending Orlando TRACON
01:38PM 27.7500 -81.0167 336° Northwest 297 342 11,000 -240 Descending Orlando TRACON
01:39PM 27.8333 -81.0500 341° North 301 346 11,000  Level Orlando TRACON
01:40PM 27.9000 -81.1000 326° Northwest 298 343 11,000  Level Orlando TRACON
01:41PM 27.9833 -81.1333 341° North 302 348 11,000  Level Orlando TRACON
01:42PM 28.0667 -81.1500 350° North 295 339 11,000 -780 Level Orlando TRACON
01:43PM 28.1500 -81.1833 341° North 293 337 9,400 -1,440 Descending Orlando TRACON
01:44PM 28.2333 -81.1833 360° North 291 335 8,000 -1,440 Descending Orlando TRACON
01:45PM 28.3167 -81.1833 360° North 284 327 6,600 -1,020 Descending Orlando TRACON
01:46PM 28.3833 -81.1833 360° North 240 276 6,000 -840 Descending Orlando TRACON
01:47PM 28.4500 -81.1833 360° North 231 266 5,000 -900 Descending Orlando TRACON
01:48PM 28.5000 -81.1833 360° North 227 261 4,200 -1,440 Descending Orlando TRACON
01:49PM 28.5167 -81.2500 286° West 212 244 2,100 -1,620 Descending Orlando TRACON
01:50PM 28.4833 -81.2833 221° Southwest 182 209 800 -1,320 Descending Orlando TRACON